Ireland METAR reports

 

EIDW - Dublin Airport, Ireland
Distance from station: WNW 13km
Updated: 25/08/2019 23:00
Mostly cloudy
Mostly cloudy
 Wind from NW
Wind: NW 6 km/h
Temperature: 15°C
Dew Point: 14°C
Humidity: 94%
Barometer: 1019 hPa
Clouds: Mostly cloudy
Visibility: 10 km
Cloud details: Few Clouds 610 m
Mostly cloudy 914 m
2019/08/25 22:00 EIDW 252200Z 32003KT 9999 FEW020 BKN030 15/14 Q1019 NOSIG
EIME - Casement (mil), Ireland
Distance from station: WSW 26km
Updated: 25/08/2019 23:00
Mostly cloudy
Mostly cloudy
 Wind from WSW
Wind: WSW 6 km/h
Temperature: 16°C
Dew Point: 15°C
Humidity: 94%
Barometer: 1019 hPa
Clouds: Mostly cloudy
Visibility: 10 km
Cloud details: Mostly cloudy 1067 m
2019/08/25 22:00 EIME 252200Z 24003KT 9999 BKN035 16/15 Q1019
 
EGAC - Belfast Harbour, United Kingdom
Distance from station: N 140km
Updated: 25/08/2019 22:50
Overcast
Overcast
 Wind from NNE
Wind: NNE 9 km/h
Temperature: 15°C
Dew Point: 14°C
Humidity: 94%
Barometer: 1019 hPa
Clouds: Overcast
Visibility: 10 km
Cloud details: Overcast 488 m
2019/08/25 21:50 EGAC 252150Z AUTO 03005KT 9999 OVC016/// 15/14 Q1019
EGAA - Belfast/Aldergro, United Kingdom
Distance from station: N 141km
Updated: 25/08/2019 22:50
Clear
Clear
 Wind from calm
Wind: Calm
Temperature: 13°C
Dew Point: 11°C
Humidity: 88%
Barometer: 1019 hPa
Summary: Clear
Visibility: greater than 10 km
2019/08/25 21:50 EGAA 252150Z 00000KT CAVOK 13/11 Q1019
 
EIWF - Waterford Arpt, Ireland
Distance from station: SSW 148km
Updated: 25/08/2019 21:30
NOT Current
Few Clouds
Few Clouds
 Wind from W
Wind: W 4 km/h
Temperature: 14°C
Dew Point: 13°C
Humidity: 94%
Barometer: 1020 hPa
Clouds: Few Clouds
Visibility: 10 km
Cloud details: Few Clouds 1067 m
2019/08/25 20:30 EIWF 252030Z 26002KT 9999 FEW035 14/13 Q1020
EIKN - Connaught Apt, Ireland
Distance from station: WNW 191km
Updated: 25/08/2019 21:00
NOT Current
Mostly cloudy
Mostly cloudy
 Wind from WSW
Wind: WSW 9 km/h
Temperature: 14°C
Dew Point: 11°C
Humidity: 82%
Barometer: 1019 hPa
Clouds: Mostly cloudy
Visibility: 10 km
Cloud details: Mostly cloudy 1219 m
2019/08/25 20:00 EIKN 252000Z 25005KT 220V280 9999 BKN040 14/11 Q1019 NOSIG
 
EISG - Sligo Arpt, Ireland
Distance from station: WNW 195km
Updated: 25/08/2019 20:30
NOT Current
Overcast
Overcast
 Wind from WNW
Wind: WNW 7 km/h
Temperature: 15°C
Dew Point: 13°C
Humidity: 88%
Barometer: 1019 hPa
Clouds: Overcast
Visibility: 10 km
Cloud details: Overcast 610 m
2019/08/25 19:30 EISG 251930Z 30004KT 9999 OVC020 15/13 Q1019
EGAE - Eglinton/Londond, United Kingdom
Distance from station: NNW 198km
Updated: 25/08/2019 20:50
NOT Current
Mostly cloudy
Mostly cloudy
 Wind from NW
Wind: NW 6 km/h, Gust: 41 km/h
Temperature: 16°C
Dew Point: 13°C
Humidity: 83%
Barometer: 1018 hPa
Clouds: Mostly cloudy
Visibility: 10 km
Cloud details: Few Clouds 366 m
Partly cloudy 457 m
Mostly cloudy 1006 m
2019/08/25 19:50 EGAE 251950Z 31003G22KT 9999 FEW012 SCT015 BKN033 16/13 Q1018
 
EINN - Shannon Airport, Ireland
Distance from station: WSW 204km
Updated: 25/08/2019 23:00
Clear
Clear
 Wind from WNW
Wind: WNW 6 km/h
Temperature: 12°C
Dew Point: 11°C
Humidity: 94%
Barometer: 1020 hPa
Summary: Clear
Visibility: greater than 10 km
2019/08/25 22:00 EINN 252200Z 29003KT CAVOK 12/11 Q1020 NOSIG
EICK - Cork Arpt/Corcai, Ireland
Distance from station: SW 234km
Updated: 25/08/2019 23:00
Few Clouds
Few Clouds
 Wind from NNW
Wind: NNW 15 km/h
Temperature: 14°C
Dew Point: 11°C
Humidity: 82%
Barometer: 1020 hPa
Clouds: Few Clouds
Visibility: 10 km
Cloud details: Few Clouds 732 m
2019/08/25 22:00 EICK 252200Z 33008KT 9999 FEW024 14/11 Q1020 NOSIG